Hovedside
METAR-TAF:

METAR-TAF

Lufthavner :

Ilulissat lufthavn

Ilulissat, Grønland

breddegrad: 69-14N, lengdegrad: 051-04W, høyde over havet: 29 m

Gjeldene værobservasjon

Denne rapporten ble laget for 42 minutter siden, klokken 10:50 UTC
Vind 3 kt fra Sør
Temperatur -16°C
Luftfuktighet 65%
Trykk 1002 hPa
Sikt 10 km eller mer
Brutte skyer i en høyde av 2500 ft
regnbyger i nærheten

METAR: BGJN 241050Z 18003KT 9999 VCSH BKN025 M16/M21 Q1002

Tid: 08:32 (11:32 UTC)

Varsel

Denne rapporten ble laget for 2 timer og 34 minutter siden, klokken 08:58 UTC
Varsel gyldig fra 24. klokken 09 UTC til 24. klokken 18 UTC
Vind 8 kt fra Øst-nordøst
Sikt 10 km eller mer
Brutte skyer i en høyde av 2500 ft
lett snø
Midlertidig
fra 24. klokken 09 UTC til 24. klokken 18 UTC
Sikt: 4000 m
Brutte skyer i en høyde av 1400 ft

TAF: BGJN 240858Z 2409/2418 06008KT 9999 -SN BKN025 TEMPO 2409/2418 4000 BKN014

Værobservasjoner og værvarsel for over 4000 flyplasser (METAR- og TAF-rapporter).

Tilgjengelige stasjoner er representert av de røde og gule prikkene på kartet.

Hold musepekeren over prikken for å se navnet på stasjonen.

Klikk så for å se værobservasjoner og -varsler.

For å forandre kartet kan du klikke på den grønne knappen med svart kryss for å zoome inn, på den grønne knappen med strek for å zoome ut, eller på de grønne pilene for å se tilstøtende kart.


METAR-TAF: